createdAt,value
2022-08-09T00:00:04.742Z,3.23
2022-08-09T00:02:43.060Z,3.67
2022-08-09T00:06:18.146Z,3.50
2022-08-09T00:08:10.092Z,3.85
2022-08-09T00:10:40.628Z,4.00
2022-08-09T00:13:16.722Z,4.32
2022-08-09T00:15:57.600Z,4.38
2022-08-09T00:18:27.406Z,4.35
2022-08-09T00:20:56.038Z,4.15
2022-08-09T00:23:57.513Z,4.00
2022-08-09T00:26:11.347Z,4.15
2022-08-09T00:28:39.909Z,4.13
2022-08-09T00:31:09.240Z,4.43
2022-08-09T00:33:55.638Z,3.95
2022-08-09T00:36:27.160Z,3.83
2022-08-09T00:38:58.834Z,4.05
2022-08-09T00:44:14.339Z,3.90
2022-08-09T00:44:24.642Z,4.20
2022-08-09T00:47:01.713Z,3.97
2022-08-09T00:49:33.527Z,4.35
2022-08-09T00:52:05.053Z,4.43
2022-08-09T00:54:36.263Z,4.70
2022-08-09T00:57:08.986Z,4.57
2022-08-09T00:59:41.404Z,4.28
2022-08-09T01:02:15.622Z,4.53
2022-08-09T01:04:51.796Z,4.07
2022-08-09T01:08:00.906Z,4.68
2022-08-09T01:10:36.429Z,4.57
2022-08-09T01:13:22.203Z,4.72
2022-08-09T01:15:53.028Z,5.28
2022-08-09T01:18:30.484Z,4.70
2022-08-09T01:21:13.778Z,4.93
2022-08-09T01:24:02.808Z,5.25
2022-08-09T01:26:56.438Z,4.63
2022-08-09T01:29:40.939Z,4.90
2022-08-09T01:32:31.575Z,4.80
2022-08-09T01:35:07.255Z,4.45
2022-08-09T01:38:08.265Z,4.97
2022-08-09T01:40:41.490Z,5.13
2022-08-09T01:43:10.235Z,4.78
2022-08-09T01:45:46.428Z,4.80
2022-08-09T01:48:17.523Z,4.43
2022-08-09T01:50:54.737Z,4.90
2022-08-09T01:53:23.870Z,4.72
2022-08-09T01:55:57.469Z,4.40
2022-08-09T01:58:28.005Z,5.07
2022-08-09T02:00:57.614Z,4.38
2022-08-09T02:03:25.965Z,5.18
2022-08-09T02:06:03.721Z,4.65
2022-08-09T02:08:57.614Z,4.40
2022-08-09T02:11:42.113Z,4.60
2022-08-09T02:14:15.846Z,5.05
2022-08-09T02:16:59.563Z,4.85
2022-08-09T02:19:43.493Z,5.38
2022-08-09T02:22:19.093Z,5.30
2022-08-09T02:24:58.867Z,4.90
2022-08-09T02:27:43.531Z,5.25
2022-08-09T02:30:18.117Z,5.25
2022-08-09T02:32:48.601Z,5.55
2022-08-09T02:35:26.151Z,5.20
2022-08-09T02:38:27.853Z,5.40
2022-08-09T02:41:02.341Z,4.60
2022-08-09T02:43:42.597Z,5.22
2022-08-09T02:46:24.664Z,5.05
2022-08-09T02:48:53.943Z,5.43
2022-08-09T02:51:24.189Z,4.80
2022-08-09T02:54:00.804Z,5.00
2022-08-09T02:56:31.915Z,4.50
2022-08-09T02:59:02.345Z,5.05
2022-08-09T03:01:58.694Z,4.90
2022-08-09T03:04:20.019Z,4.50
2022-08-09T03:06:48.975Z,4.63
2022-08-09T03:09:18.395Z,4.45
2022-08-09T03:12:05.944Z,4.65
2022-08-09T03:14:36.567Z,4.72
2022-08-09T03:17:05.640Z,4.00
2022-08-09T03:19:58.026Z,4.15
2022-08-09T03:22:25.433Z,4.10
2022-08-09T03:25:05.916Z,3.80
2022-08-09T03:27:48.889Z,4.20
2022-08-09T03:30:30.069Z,4.07
2022-08-09T03:33:13.166Z,3.90
2022-08-09T03:36:12.303Z,3.65
2022-08-09T03:38:43.154Z,4.07
2022-08-09T03:41:15.259Z,3.70
2022-08-09T03:44:02.837Z,3.90
2022-08-09T03:46:31.987Z,3.70
2022-08-09T03:49:04.276Z,4.35
2022-08-09T03:51:57.745Z,3.97
2022-08-09T03:54:31.132Z,3.67
2022-08-09T03:57:04.466Z,3.90
2022-08-09T03:59:54.652Z,4.20
2022-08-09T04:02:26.574Z,4.00
2022-08-09T04:04:56.707Z,3.97
2022-08-09T04:07:47.593Z,4.10
2022-08-09T04:10:20.225Z,3.88
2022-08-09T04:15:38.914Z,3.58
2022-08-09T04:18:09.771Z,3.45
2022-08-09T04:20:47.355Z,4.00
2022-08-09T04:23:17.154Z,4.97
2022-08-09T04:25:52.295Z,4.70
2022-08-09T04:28:34.099Z,4.93
2022-08-09T04:33:52.497Z,4.50
2022-08-09T04:36:28.357Z,4.70
2022-08-09T04:38:59.246Z,4.85
2022-08-09T04:41:32.307Z,5.22
2022-08-09T04:44:07.197Z,4.80
2022-08-09T04:46:59.323Z,4.93
2022-08-09T04:49:52.326Z,5.45
2022-08-09T04:52:26.707Z,5.00
2022-08-09T04:54:56.354Z,4.80
2022-08-09T04:57:25.102Z,4.90
2022-08-09T04:59:54.403Z,5.28
2022-08-09T05:02:22.457Z,4.93
2022-08-09T05:04:55.324Z,5.55
2022-08-09T05:07:23.800Z,5.22
2022-08-09T05:09:51.358Z,4.80
2022-08-09T05:12:18.802Z,4.57
2022-08-09T05:15:01.048Z,4.45
2022-08-09T05:18:38.801Z,4.45
2022-08-09T05:20:18.093Z,5.10
2022-08-09T05:23:53.796Z,4.30
2022-08-09T05:25:33.075Z,4.57
2022-08-09T05:28:02.548Z,5.28
2022-08-09T05:30:31.297Z,5.07
2022-08-09T05:32:58.752Z,5.05
2022-08-09T05:35:26.118Z,4.90
2022-08-09T05:37:57.323Z,4.78
2022-08-09T05:40:28.210Z,4.75
2022-08-09T05:42:56.592Z,4.28
2022-08-09T05:45:25.480Z,4.65
2022-08-09T05:48:10.895Z,5.13
2022-08-09T05:50:51.221Z,4.70
2022-08-09T05:53:31.748Z,4.82
2022-08-09T05:56:01.553Z,5.05
2022-08-09T05:58:28.802Z,4.80
2022-08-09T06:00:55.874Z,4.85
2022-08-09T06:03:25.213Z,5.20
2022-08-09T06:06:06.105Z,4.72
2022-08-09T06:08:33.896Z,4.90
2022-08-09T06:11:01.334Z,4.97
2022-08-09T06:13:44.640Z,5.32
2022-08-09T06:16:14.478Z,4.68
2022-08-09T06:18:43.535Z,4.80
2022-08-09T06:21:10.919Z,4.70
2022-08-09T06:23:55.610Z,4.65
2022-08-09T06:26:28.727Z,4.50
2022-08-09T06:29:00.330Z,5.00
2022-08-09T06:31:39.954Z,5.07
2022-08-09T06:34:20.437Z,5.60
2022-08-09T06:36:58.918Z,5.13
2022-08-09T06:39:48.721Z,5.00
2022-08-09T06:42:16.988Z,5.32
2022-08-09T06:44:54.087Z,5.18
2022-08-09T06:47:22.490Z,5.07
2022-08-09T06:50:13.978Z,4.88
2022-08-09T06:52:46.936Z,5.15
2022-08-09T06:55:16.557Z,4.63
2022-08-09T06:58:03.502Z,4.95
2022-08-09T07:00:48.979Z,5.38
2022-08-09T07:03:27.709Z,5.53
2022-08-09T07:06:02.781Z,4.53
2022-08-09T07:08:31.910Z,4.72
2022-08-09T07:10:58.983Z,5.10
2022-08-09T07:13:28.185Z,4.43
2022-08-09T07:16:42.390Z,4.50
2022-08-09T07:18:44.721Z,4.53
2022-08-09T07:21:14.761Z,4.00
2022-08-09T07:23:56.351Z,4.68
2022-08-09T07:26:25.436Z,4.80
2022-08-09T07:29:08.917Z,4.50
2022-08-09T07:31:44.951Z,4.13
2022-08-09T07:34:19.296Z,4.15
2022-08-09T07:36:48.839Z,4.45
2022-08-09T07:39:20.396Z,4.70
2022-08-09T07:42:03.395Z,4.95
2022-08-09T07:44:50.824Z,4.25
2022-08-09T07:47:24.996Z,4.03
2022-08-09T07:50:07.798Z,3.92
2022-08-09T07:52:36.863Z,3.70
2022-08-09T07:55:09.820Z,3.67
2022-08-09T07:57:46.998Z,2.88
2022-08-09T08:00:20.813Z,3.58
2022-08-09T08:03:04.540Z,3.38
2022-08-09T08:05:53.598Z,3.50
2022-08-09T08:09:01.361Z,3.50
2022-08-09T08:12:11.194Z,3.15
2022-08-09T08:13:56.605Z,3.80
2022-08-09T08:16:29.713Z,3.00
2022-08-09T08:18:59.577Z,3.63
2022-08-09T08:21:30.995Z,2.95
2022-08-09T08:24:00.937Z,3.22
2022-08-09T08:26:41.875Z,3.50
2022-08-09T08:29:20.065Z,3.13
2022-08-09T08:32:03.866Z,2.90
2022-08-09T08:34:34.738Z,3.55
2022-08-09T08:37:04.393Z,3.03
2022-08-09T08:39:39.821Z,3.38
2022-08-09T08:42:11.598Z,3.40
2022-08-09T08:44:39.575Z,3.03
2022-08-09T08:47:12.511Z,3.85
2022-08-09T08:49:46.754Z,3.10
2022-08-09T08:52:52.707Z,3.38
2022-08-09T08:55:05.686Z,3.22
2022-08-09T08:57:35.113Z,3.38
2022-08-09T09:00:12.842Z,3.15
2022-08-09T09:02:52.722Z,3.67
2022-08-09T09:05:57.772Z,3.55
2022-08-09T09:08:29.856Z,3.17
2022-08-09T09:11:03.285Z,3.40
2022-08-09T09:13:55.759Z,3.55
2022-08-09T09:16:30.629Z,2.97
2022-08-09T09:19:22.668Z,3.15
2022-08-09T09:22:04.276Z,2.95
2022-08-09T09:24:44.892Z,2.80
2022-08-09T09:28:03.058Z,3.92
2022-08-09T09:33:15.803Z,3.28
2022-08-09T09:36:01.896Z,3.08
2022-08-09T09:38:46.659Z,3.25
2022-08-09T09:41:33.365Z,3.15
2022-08-09T09:44:31.397Z,2.97
2022-08-09T09:47:10.469Z,3.25
2022-08-09T09:50:07.758Z,3.85
2022-08-09T09:52:36.748Z,3.28
2022-08-09T09:55:23.858Z,2.90
2022-08-09T09:58:18.003Z,3.03
2022-08-09T10:00:52.572Z,2.97
2022-08-09T10:04:00.137Z,2.72
2022-08-09T10:06:42.926Z,2.47
2022-08-09T10:09:23.089Z,2.67
2022-08-09T10:12:14.211Z,2.90
2022-08-09T10:14:50.021Z,2.47
2022-08-09T10:17:39.906Z,2.83
2022-08-09T10:20:27.371Z,2.65
2022-08-09T10:23:20.911Z,2.60
2022-08-09T10:26:06.766Z,2.35
2022-08-09T10:28:38.501Z,2.33
2022-08-09T10:34:09.610Z,2.58
2022-08-09T10:36:43.592Z,2.63
2022-08-09T10:39:15.383Z,2.70
2022-08-09T10:41:43.424Z,2.83
2022-08-09T10:44:11.119Z,2.88
2022-08-09T10:48:16.674Z,2.60
2022-08-09T10:50:54.117Z,2.50
2022-08-09T10:53:38.041Z,2.70
2022-08-09T10:56:22.836Z,2.60
2022-08-09T10:58:54.009Z,2.63
2022-08-09T11:03:11.854Z,2.30
2022-08-09T11:04:30.968Z,2.72
2022-08-09T11:07:00.094Z,2.33
2022-08-09T11:09:48.114Z,3.00
2022-08-09T11:12:26.591Z,2.17
2022-08-09T11:15:24.125Z,2.53
2022-08-09T11:18:02.598Z,2.33
2022-08-09T11:20:49.698Z,2.60
2022-08-09T11:23:17.330Z,2.30
2022-08-09T11:25:54.714Z,2.60
2022-08-09T11:28:56.498Z,2.20
2022-08-09T11:31:52.700Z,2.42
2022-08-09T11:34:51.590Z,2.53
2022-08-09T11:37:28.082Z,2.20
2022-08-09T11:40:10.593Z,2.75
2022-08-09T11:42:43.609Z,2.40
2022-08-09T11:45:37.788Z,2.42
2022-08-09T11:48:19.414Z,2.25
2022-08-09T11:52:56.353Z,2.40
2022-08-09T11:54:00.994Z,2.28
2022-08-09T11:56:41.706Z,2.45
2022-08-09T11:59:12.483Z,2.40
2022-08-09T12:02:17.379Z,2.28
2022-08-09T12:04:37.179Z,2.45
2022-08-09T12:07:05.508Z,2.55
2022-08-09T12:09:37.097Z,2.50
2022-08-09T12:12:20.433Z,2.10
2022-08-09T12:15:07.860Z,2.50
2022-08-09T12:17:45.674Z,2.30
2022-08-09T12:20:21.353Z,2.63
2022-08-09T12:22:55.805Z,2.33
2022-08-09T12:25:36.704Z,2.58
2022-08-09T12:29:14.243Z,2.38
2022-08-09T12:31:59.382Z,2.38
2022-08-09T12:34:33.731Z,2.45
2022-08-09T12:37:23.873Z,3.05
2022-08-09T12:40:11.218Z,2.45
2022-08-09T12:42:45.115Z,2.40
2022-08-09T12:45:34.899Z,2.15
2022-08-09T12:48:01.841Z,2.30
2022-08-09T12:50:29.172Z,2.22
2022-08-09T12:53:08.790Z,2.50
2022-08-09T12:56:11.502Z,2.10
2022-08-09T12:58:28.035Z,2.00
2022-08-09T13:00:57.748Z,1.90
2022-08-09T13:03:57.288Z,2.53
2022-08-09T13:06:39.315Z,2.47
2022-08-09T13:09:10.377Z,2.33
2022-08-09T13:11:44.222Z,2.17
2022-08-09T13:14:41.856Z,2.38
2022-08-09T13:17:16.107Z,1.92
2022-08-09T13:20:10.212Z,2.50
2022-08-09T13:23:02.015Z,2.53
2022-08-09T13:25:54.396Z,2.22
2022-08-09T13:28:34.644Z,2.50
2022-08-09T13:32:13.679Z,1.90
2022-08-09T13:33:57.181Z,2.20
2022-08-09T13:36:42.617Z,2.17
2022-08-09T13:41:55.138Z,2.35
2022-08-09T13:42:05.532Z,2.10
2022-08-09T13:44:46.242Z,1.88
2022-08-09T13:47:33.930Z,2.20
2022-08-09T13:50:12.463Z,2.00
2022-08-09T13:52:47.587Z,2.30
2022-08-09T13:55:17.802Z,2.17
2022-08-09T13:57:56.148Z,2.03
2022-08-09T14:00:28.603Z,2.50
2022-08-09T14:03:16.843Z,2.20
2022-08-09T14:05:59.716Z,2.13
2022-08-09T14:08:31.759Z,2.10
2022-08-09T14:11:00.500Z,2.10
2022-08-09T14:14:22.379Z,1.95
2022-08-09T14:16:28.663Z,1.95
2022-08-09T14:18:58.406Z,2.15
2022-08-09T14:21:29.546Z,2.20
2022-08-09T14:24:05.507Z,2.05
2022-08-09T14:26:39.139Z,1.92
2022-08-09T14:30:18.915Z,2.05
2022-08-09T14:31:57.542Z,1.80
2022-08-09T14:34:30.798Z,2.00
2022-08-09T14:37:08.109Z,2.00
2022-08-09T14:39:48.050Z,2.20
2022-08-09T14:42:30.847Z,2.83
2022-08-09T14:46:39.706Z,1.90
2022-08-09T14:48:00.258Z,2.00
2022-08-09T14:50:34.191Z,2.08
2022-08-09T14:53:12.114Z,2.30
2022-08-09T14:55:48.042Z,2.13
2022-08-09T14:58:19.272Z,2.00
2022-08-09T15:00:51.167Z,2.20
2022-08-09T15:03:20.892Z,1.95
2022-08-09T15:05:52.607Z,1.90
2022-08-09T15:08:30.380Z,2.03
2022-08-09T15:11:00.643Z,2.17
2022-08-09T15:13:47.834Z,2.30
2022-08-09T15:16:16.972Z,2.22
2022-08-09T15:18:44.608Z,2.28
2022-08-09T15:22:00.810Z,1.92
2022-08-09T15:24:12.944Z,2.28
2022-08-09T15:26:45.389Z,2.40
2022-08-09T15:31:00.671Z,2.15
2022-08-09T15:32:03.263Z,2.05
2022-08-09T15:34:34.334Z,1.98
2022-08-09T15:37:24.251Z,2.20
2022-08-09T15:42:42.645Z,2.30
2022-08-09T15:45:12.492Z,1.92
2022-08-09T15:47:51.619Z,2.05
2022-08-09T15:50:20.825Z,2.13
2022-08-09T15:53:06.273Z,2.40
2022-08-09T15:55:54.048Z,2.40
2022-08-09T15:58:27.069Z,2.08
2022-08-09T16:03:29.665Z,1.90
2022-08-09T16:06:07.384Z,2.30
2022-08-09T16:08:56.313Z,2.40
2022-08-09T16:11:33.023Z,2.42
2022-08-09T16:14:07.085Z,2.25
2022-08-09T16:16:38.072Z,2.30
2022-08-09T16:19:07.810Z,2.27
2022-08-09T16:21:36.714Z,2.22
2022-08-09T16:24:05.533Z,2.20
2022-08-09T16:26:41.232Z,2.22
2022-08-09T16:29:12.603Z,2.30
2022-08-09T16:32:18.753Z,1.90
2022-08-09T16:34:56.040Z,2.13
2022-08-09T16:37:54.730Z,1.95
2022-08-09T16:40:12.748Z,2.33
2022-08-09T16:42:44.907Z,2.00
2022-08-09T16:45:17.716Z,2.10
2022-08-09T16:48:40.669Z,2.55
2022-08-09T16:50:38.756Z,2.30
2022-08-09T16:53:09.080Z,1.85
2022-08-09T16:56:01.388Z,2.10
2022-08-09T16:58:27.562Z,2.67
2022-08-09T17:00:55.213Z,2.10
2022-08-09T17:03:26.416Z,2.20
2022-08-09T17:06:06.812Z,2.15
2022-08-09T17:08:45.940Z,2.15
2022-08-09T17:11:39.986Z,2.60
2022-08-09T17:14:25.295Z,2.50
2022-08-09T17:16:54.561Z,2.50
2022-08-09T17:19:21.845Z,2.38
2022-08-09T17:21:54.463Z,2.53
2022-08-09T17:24:30.095Z,2.58
2022-08-09T17:26:58.311Z,2.42
2022-08-09T17:29:31.905Z,3.15
2022-08-09T17:32:05.739Z,2.30
2022-08-09T17:35:04.401Z,2.60
2022-08-09T17:37:21.149Z,2.55
2022-08-09T17:39:52.933Z,2.38
2022-08-09T17:42:41.438Z,2.70
2022-08-09T17:45:15.985Z,2.47
2022-08-09T17:47:56.229Z,2.60
2022-08-09T17:50:36.094Z,2.20
2022-08-09T17:53:10.561Z,2.60
2022-08-09T17:55:54.151Z,2.30
2022-08-09T17:58:22.473Z,2.35
2022-08-09T18:00:56.417Z,2.17
2022-08-09T18:03:26.416Z,2.85
2022-08-09T18:05:57.648Z,2.70
2022-08-09T18:08:28.211Z,2.83
2022-08-09T18:11:02.020Z,2.70
2022-08-09T18:13:39.756Z,2.50
2022-08-09T18:16:29.122Z,2.60
2022-08-09T18:18:57.657Z,2.50
2022-08-09T18:21:26.686Z,2.50
2022-08-09T18:24:09.999Z,2.60
2022-08-09T18:26:45.853Z,2.35
2022-08-09T18:30:41.162Z,2.53
2022-08-09T18:32:03.273Z,2.50
2022-08-09T18:34:31.909Z,2.67
2022-08-09T18:36:59.527Z,2.80
2022-08-09T18:39:32.000Z,3.22
2022-08-09T18:42:08.245Z,3.20
2022-08-09T18:44:36.531Z,2.58
2022-08-09T18:47:09.747Z,2.50
2022-08-09T19:42:29.066Z,3.08
2022-08-09T19:44:56.192Z,3.30
2022-08-09T19:47:27.067Z,3.33
2022-08-09T19:50:06.932Z,2.92
2022-08-09T19:52:49.283Z,3.55
2022-08-09T19:55:16.752Z,3.00
2022-08-09T19:57:46.625Z,3.10
2022-08-09T20:00:15.797Z,3.80
2022-08-09T20:04:07.235Z,3.40
2022-08-09T20:05:46.002Z,3.35
2022-08-09T20:08:16.209Z,3.92
2022-08-09T20:11:04.113Z,3.53
2022-08-09T20:13:32.255Z,3.70
2022-08-09T20:16:37.575Z,3.50
2022-08-09T20:19:42.599Z,3.75
2022-08-09T20:21:56.171Z,4.05
2022-08-09T20:24:29.913Z,4.30
2022-08-09T20:27:02.773Z,4.05
2022-08-09T20:29:37.226Z,4.10
2022-08-09T20:32:30.726Z,4.07
2022-08-09T20:34:58.140Z,4.10
2022-08-09T20:37:25.427Z,4.50
2022-08-09T20:40:15.200Z,3.92
2022-08-09T20:42:53.248Z,4.05
2022-08-09T20:45:57.144Z,4.38
2022-08-09T20:48:21.164Z,4.40
2022-08-09T20:50:55.656Z,4.33
2022-08-09T20:53:36.545Z,4.68
2022-08-09T20:56:20.074Z,4.47
2022-08-09T20:58:54.175Z,4.00
2022-08-09T21:01:34.463Z,4.72
2022-08-09T21:05:51.714Z,4.30
2022-08-09T21:06:59.974Z,4.55
2022-08-09T21:09:56.784Z,4.45
2022-08-09T21:15:23.911Z,4.10
2022-08-09T21:18:21.016Z,4.65
2022-08-09T21:20:50.320Z,4.55
2022-08-09T21:23:21.874Z,4.05
2022-08-09T21:26:03.990Z,4.30
2022-08-09T21:28:36.041Z,4.50
2022-08-09T21:31:17.127Z,4.30
2022-08-09T21:33:51.677Z,4.60
2022-08-09T21:36:28.180Z,4.05
2022-08-09T21:38:58.651Z,4.55
2022-08-09T21:42:03.930Z,4.43
2022-08-09T21:44:34.715Z,4.28
2022-08-09T21:47:08.869Z,3.97
2022-08-09T21:49:39.946Z,4.10
2022-08-09T21:52:17.653Z,4.32
2022-08-09T21:55:02.865Z,4.50
2022-08-09T21:57:39.586Z,4.13
2022-08-09T22:00:31.857Z,3.80
2022-08-09T22:03:06.984Z,3.80
2022-08-09T22:05:37.189Z,3.65
2022-08-09T22:08:13.902Z,4.00
2022-08-09T22:11:50.076Z,3.72
2022-08-09T22:13:35.722Z,3.50
2022-08-09T22:16:09.394Z,3.78
2022-08-09T22:18:53.664Z,3.38
2022-08-09T22:21:50.420Z,3.10
2022-08-09T22:24:21.008Z,3.35
2022-08-09T22:26:52.154Z,2.90
2022-08-09T22:29:25.322Z,3.30
2022-08-09T22:31:57.853Z,3.15
2022-08-09T22:34:26.852Z,3.05
2022-08-09T22:36:58.622Z,3.00
2022-08-09T22:39:56.020Z,3.33
2022-08-09T22:42:21.380Z,3.60
2022-08-09T22:45:11.520Z,3.38
2022-08-09T22:48:15.374Z,3.05
2022-08-09T22:50:31.916Z,3.20
2022-08-09T22:53:03.370Z,3.03
2022-08-09T22:56:06.304Z,3.45
2022-08-09T22:58:30.929Z,3.20
2022-08-09T23:01:05.472Z,3.20
2022-08-09T23:06:34.965Z,3.47
2022-08-09T23:09:06.235Z,3.63
2022-08-09T23:11:33.540Z,3.30
2022-08-09T23:14:00.738Z,3.67
2022-08-09T23:16:28.555Z,4.22
2022-08-09T23:18:55.658Z,4.18
2022-08-09T23:21:26.871Z,4.53
2022-08-09T23:23:58.774Z,3.97
2022-08-09T23:26:38.205Z,5.00
2022-08-09T23:29:06.955Z,4.90
2022-08-09T23:31:34.511Z,4.97
2022-08-09T23:34:02.480Z,5.15
2022-08-09T23:36:29.999Z,5.32
2022-08-09T23:38:57.241Z,5.13
2022-08-09T23:41:27.675Z,5.18
2022-08-09T23:44:00.629Z,5.10
2022-08-09T23:46:28.980Z,5.75
2022-08-09T23:48:56.567Z,5.38
2022-08-09T23:51:23.746Z,4.45
2022-08-09T23:53:52.503Z,4.90
2022-08-09T23:56:52.270Z,4.30
2022-08-09T23:59:10.499Z,4.13
